VVPB/HUI METAR and TAF weather

Enter ICAO airport designator
Station Type Date Time Source
VVPB METAR 2019/07/20 05:00 UTC NOAA

VVPB 200500Z 01006KT 9999 FEW020 38/24 Q1005 NOSIG


Station Type Date Time Source
VVPB Decoded METAR 2019/07/20 05:00 UTC NOAA

Hue, Vietnam (VVPB) 16-24N 107-41E 17M
Jul 20, 2019 - 01:00 AM EDT / 2019.07.20 0500 UTC
Wind: from the N (010 degrees) at 7 MPH (6 KT):0
Visibility: greater than 7 mile(s):0
Sky conditions: mostly clear
Temperature: 100 F (38 C)
Heat index: 113.5 F (45.3 C):1
Dew Point: 75 F (24 C)
Relative Humidity: 45%
Pressure (altimeter): 29.68 in. Hg (1005 hPa)
ob: VVPB 200500Z 01006KT 9999 FEW020 38/24 Q1005 NOSIG
cycle: 5

Station Type Date Time Source
VVPB TAF 2019/07/19 18:00 UTC NOAA

TAF VVPB 191700Z 1918/2018 22004KT 9999 FEW020 SCT060
BECMG 2005/2006 10010KT
TEMPO 2009/2012 TS FEW015 FEW020CB SCT060
BECMG 2013/2014 22004KT

Example: see airport list